Weather History for KJSO - February, 2014

Change the Weather History Date:

Friday, February 14, 2014

  Actual Average (KTYR) Record (KTYR)
Temperature  
Mean Temperature 55 °F 50 °F  
Max Temperature 69 °F 60 °F 83 °F (1945)
Min Temperature 41 °F 40 °F 11 °F (1899)
Degree Days  
Heating Degree Days 10 15  
Month to date heating degree days 227  
Since 1 July heating degree days 1705  
Cooling Degree Days 0 0  
Month to date cooling degree days 0  
Year to date cooling degree days 4  
Growing Degree Days 5 (Base 50)    
Moisture  
Dew Point 38 °F    
Average Humidity 62    
Maximum Humidity 100    
Minimum Humidity 25    
Precipitation  
Precipitation 0.00 in 0.15 in 1.72 in (1959)
Month to date precipitation 1.85  
Year to date precipitation 4.91  
Snow  
Snow 0.00 in - - ()
Month to date snowfall  
Since 1 July snowfall  
Snow Depth -    
Sea Level Pressure  
Sea Level Pressure 29.92 in    
Wind  
Wind Speed 9 mph (SW)    
Max Wind Speed 17 mph    
Max Gust Speed 28 mph    
Visibility 9 miles    
Events Fog    
T = Trace of Precipitation, MM = Missing Value Source: NWS Daily Summary

Daily Weather History Graph

Daily Weather History Graph

Search for Another Location

Airport or City:

Trip Planner

Search our weather history database for the weather conditions in past years. The results will help you decide how hot, cold, wet, or windy it might be!

Date:

Astronomy

Feb. 14, 2014 Rise Set
Actual Time 7:03 AM CST 6:06 PM CST
Civil Twilight 6:38 AM CST 6:31 PM CST
Nautical Twilight 6:10 AM CST 7:00 PM CST
Astronomical Twilight 5:41 AM CST 7:28 PM CST
Moon 6:08 PM CST (2/14) 6:33 AM CST (2/14)
Length of Visible Light 11h 52m
Length of Day
11h 02m
Full, 100% of the Moon is Illuminated
Feb 14
Full
Feb 14
Full
Feb 22
Last Quarter
Mar 1
New
Mar 8
First Quarter

Hourly Weather History & Observations

Time (CST) Temp. Windchill Dew Point Humidity Pressure Visibility Wind Dir Wind Speed Gust Speed Precip Events Conditions
12:15 AM 46.4 °F 42.4 °F 37.8 °F 72% 29.93 in 10.0 mi South 8.1 mph - N/A   Clear
12:35 AM 45.9 °F 41.7 °F 37.6 °F 73% 29.92 in 10.0 mi South 8.1 mph - N/A   Clear
12:55 AM 45.5 °F 41.8 °F 37.8 °F 74% 29.93 in 10.0 mi South 6.9 mph - N/A   Clear
1:15 AM 44.1 °F 40.1 °F 37.6 °F 78% 29.93 in 10.0 mi South 6.9 mph - N/A   Clear
1:35 AM 44.1 °F 39.0 °F 37.6 °F 78% 29.93 in 10.0 mi SSW 9.2 mph - N/A   Clear
1:55 AM 43.7 °F 38.6 °F 37.8 °F 80% 29.91 in 10.0 mi South 9.2 mph - N/A   Clear
2:15 AM 43.2 °F 37.9 °F 37.8 °F 81% 29.91 in 10.0 mi South 9.2 mph - N/A   Clear
2:35 AM 42.1 °F 37.1 °F 37.8 °F 85% 29.91 in 10.0 mi South 8.1 mph - N/A   Clear
2:55 AM 42.1 °F 36.6 °F 37.9 °F 85% 29.90 in 10.0 mi South 9.2 mph - N/A   Clear
3:15 AM 41.5 °F 35.9 °F 38.3 °F 88% 29.89 in 10.0 mi South 9.2 mph - N/A   Clear
3:35 AM 41.7 °F 35.2 °F 38.7 °F 89% 29.88 in 10.0 mi South 11.5 mph 16.1 mph N/A   Clear
3:55 AM 41.5 °F 35.4 °F 39.0 °F 91% 29.87 in 10.0 mi South 10.4 mph - N/A   Clear
4:15 AM 41.5 °F 35.9 °F 39.4 °F 92% 29.88 in 10.0 mi South 9.2 mph - N/A   Clear
4:35 AM 41.5 °F 35.9 °F 39.6 °F 93% 29.88 in 10.0 mi South 9.2 mph - N/A   Clear
4:55 AM 41.2 °F 35.5 °F 39.7 °F 95% 29.88 in 10.0 mi South 9.2 mph - N/A   Clear
5:15 AM 41.4 °F 35.7 °F 40.1 °F 95% 29.88 in 10.0 mi South 9.2 mph - N/A   Clear
5:35 AM 41.5 °F 35.4 °F 40.5 °F 96% 29.87 in 10.0 mi South 10.4 mph - N/A   Clear
5:55 AM 41.5 °F 35.9 °F 41.0 °F 98% 29.86 in 7.0 mi South 9.2 mph - N/A   Clear
6:15 AM 41.5 °F 35.9 °F 41.0 °F 98% 29.86 in 7.0 mi South 9.2 mph - N/A   Clear
6:35 AM 41.7 °F 35.6 °F 41.2 °F 98% 29.85 in 5.0 mi South 10.4 mph - N/A   Clear
6:55 AM 41.7 °F 34.8 °F 41.4 °F 99% 29.84 in 4.0 mi South 12.7 mph - N/A   Clear
7:15 AM 41.9 °F 35.9 °F 41.5 °F 99% 29.85 in 2.5 mi South 10.4 mph - N/A   Mostly Cloudy
7:35 AM 41.9 °F 35.0 °F 41.9 °F 100% 29.83 in 0.2 mi South 12.7 mph 16.1 mph N/A Fog Fog
7:55 AM 42.3 °F 35.9 °F 42.3 °F 100% 29.84 in 0.2 mi South 11.5 mph 18.4 mph N/A Fog Fog
8:15 AM 43.3 °F 38.1 °F 43.3 °F 100% 29.85 in 0.5 mi South 9.2 mph - N/A Fog Fog
8:35 AM 44.6 °F 39.2 °F 44.6 °F 100% 29.86 in 2.5 mi SSW 10.4 mph - N/A   Overcast
8:55 AM 46.4 °F 41.1 °F 46.2 °F 99% 29.85 in 5.0 mi SSW 11.5 mph 20.7 mph N/A   Overcast
9:15 AM 48.0 °F - 47.3 °F 97% 29.84 in 7.0 mi SSW 12.7 mph 18.4 mph N/A   Overcast
9:35 AM 50.2 °F - 48.4 °F 94% 29.85 in 10.0 mi SSW 10.4 mph 16.1 mph N/A   Overcast
9:55 AM 52.5 °F - 49.5 °F 89% 29.84 in 10.0 mi SSW 13.8 mph 25.3 mph N/A   Overcast
10:15 AM 55.4 °F - 50.2 °F 83% 29.85 in 10.0 mi SSW 9.2 mph 20.7 mph N/A   Scattered Clouds
10:35 AM 57.4 °F - 50.2 °F 77% 29.84 in 10.0 mi SW 17.3 mph 24.2 mph N/A   Clear
10:55 AM 59.0 °F - 50.0 °F 72% 29.83 in 10.0 mi SSW 12.7 mph 21.9 mph N/A   Clear
11:15 AM 60.6 °F - 50.0 °F 68% 29.83 in 10.0 mi SSW 13.8 mph 23.0 mph N/A   Clear
11:35 AM 61.9 °F - 50.0 °F 65% 29.81 in 10.0 mi SSW 16.1 mph 21.9 mph N/A   Clear
11:55 AM 63.9 °F - 50.0 °F 61% 29.82 in 10.0 mi SSW 13.8 mph 23.0 mph N/A   Clear
12:15 PM 64.4 °F - 49.5 °F 58% 29.85 in 10.0 mi West 13.8 mph 25.3 mph N/A   Clear
12:35 PM 65.3 °F - 48.4 °F 54% 29.86 in 10.0 mi West 16.1 mph 24.2 mph N/A   Scattered Clouds
12:55 PM 65.1 °F - 46.6 °F 51% 29.86 in 10.0 mi WNW 17.3 mph 24.2 mph N/A   Scattered Clouds
1:15 PM 66.0 °F - 46.6 °F 49% 29.87 in 10.0 mi WNW 17.3 mph 23.0 mph N/A   Scattered Clouds
1:35 PM 67.1 °F - 44.2 °F 44% 29.87 in 10.0 mi West 13.8 mph 20.7 mph N/A   Scattered Clouds
1:55 PM 67.8 °F - 41.5 °F 38% 29.86 in 10.0 mi WNW 13.8 mph - N/A   Clear
2:15 PM 68.0 °F - 40.5 °F 37% 29.87 in 10.0 mi WNW 11.5 mph 18.4 mph N/A   Clear
2:35 PM 68.5 °F - 39.0 °F 34% 29.87 in 10.0 mi NNW 11.5 mph 23.0 mph N/A   Clear
2:55 PM 68.7 °F - 37.9 °F 32% 29.88 in 10.0 mi NW 11.5 mph 17.3 mph N/A   Clear
3:15 PM 68.9 °F - 36.7 °F 31% 29.88 in 10.0 mi NNW 5.8 mph 19.6 mph N/A   Clear
3:35 PM 69.4 °F - 35.8 °F 29% 29.88 in 10.0 mi NNW 10.4 mph 17.3 mph N/A   Clear
3:55 PM 69.1 °F - 35.2 °F 29% 29.90 in 10.0 mi NW 12.7 mph 21.9 mph N/A   Clear
4:15 PM 68.9 °F - 32.0 °F 25% 29.91 in 10.0 mi NNW 15.0 mph 27.6 mph N/A   Clear
4:35 PM 68.7 °F - 33.8 °F 28% 29.91 in 10.0 mi North 10.4 mph 17.3 mph N/A   Clear
4:55 PM 68.0 °F - 33.1 °F 27% 29.92 in 10.0 mi NNW 10.4 mph - N/A   Clear
5:15 PM 66.7 °F - 32.0 °F 27% 29.93 in 10.0 mi NNW 8.1 mph 16.1 mph N/A   Clear
5:35 PM 65.8 °F - 32.0 °F 28% 29.94 in 10.0 mi NNW 12.7 mph 18.4 mph N/A   Clear
5:55 PM 64.6 °F - 32.0 °F 30% 29.95 in 10.0 mi NW 5.8 mph - N/A   Clear
6:15 PM 63.3 °F - 33.6 °F 33% 29.96 in 10.0 mi NW 5.8 mph - N/A   Clear
6:35 PM 61.9 °F - 34.9 °F 36% 29.96 in 10.0 mi Calm Calm - N/A   Clear
6:55 PM 59.7 °F - 35.6 °F 41% 29.98 in 10.0 mi NW 4.6 mph - N/A   Clear
7:15 PM 60.4 °F - 32.9 °F 36% 30.00 in 10.0 mi NW 4.6 mph - N/A   Clear
7:35 PM 59.2 °F - 29.8 °F 33% 30.01 in 10.0 mi NNW 3.5 mph - N/A   Clear
7:55 PM 58.8 °F - 27.3 °F 30% 30.01 in 10.0 mi NNW 5.8 mph - N/A   Clear
8:15 PM 59.0 °F - 26.4 °F 29% 30.03 in 10.0 mi North 6.9 mph - N/A   Clear
8:35 PM 57.9 °F - 26.6 °F 30% 30.04 in 10.0 mi NNW 4.6 mph - N/A   Clear
8:55 PM 56.7 °F - 27.0 °F 32% 30.06 in 10.0 mi Calm Calm - N/A   Clear
9:15 PM 56.3 °F - 27.0 °F 32% 30.06 in 10.0 mi Calm Calm - N/A   Clear
9:35 PM 54.7 °F - 27.7 °F 35% 30.07 in 10.0 mi NNE 3.5 mph - N/A   Clear
9:55 PM 54.9 °F - 27.9 °F 35% 30.07 in 10.0 mi North 3.5 mph - N/A   Clear
10:15 PM 53.6 °F - 28.9 °F 39% 30.07 in 10.0 mi NNE 3.5 mph - N/A   Clear
10:35 PM 53.2 °F - 28.9 °F 39% 30.07 in 10.0 mi Calm Calm - N/A   Clear
10:55 PM 52.3 °F - 29.5 °F 42% 30.07 in 10.0 mi NNE 3.5 mph - N/A   Clear
11:15 PM 52.0 °F - 29.7 °F 42% 30.07 in 10.0 mi Calm Calm - N/A   Clear
11:35 PM 51.8 °F - 29.3 °F 42% 30.07 in 10.0 mi Calm Calm - N/A   Clear
11:55 PM 52.5 °F - 29.1 °F 41% 30.07 in 10.0 mi Calm Calm - N/A   Clear